Marion, Kansas
Current Conditions -  °F | °C
As of 3:55 AM on Sunday 21 Dec 2014 (Local Time) from KEWK Reporting Station
Overcast Overcast  
Wind Chill: 31°   Ceiling: 1700
Heat Index: 39°   Visibility: 10mi
Dew Point: 34°   Wind: 14mph
Humidity: 81%   Direction: 190°S
Pressure: 30.02"   Gusts: NA
Location:  38.35°N, 97.02°W
Report Text: KEWK 210955Z AUTO 19012KT 10SM OVC017 04/01 A3002 RMK AO1
Loading
Personal Weather Stations






























Interactive Weather Map New forecast layout! Learn more

10-Day Weather Forecast

Advertisements
Track Severe Weather on mobile